Time;durP1;ratioP1;P1;durP2;ratioP2;P2;SDS_P1;SDS_P2;PMS_P1;PMS_P2;Temp;Humidity;BMP_temperature;BMP_pressure;BME280_temperature;BME280_humidity;BME280_pressure;Samples;Min_cycle;Max_cycle;Signal;HPM_P1;HPM_P2
2021/03/15 00:02:06;;;;;;;16.03;6.67;;;7.30;99.90;;;;;;5051767;28;20192;-68
2021/03/15 00:04:33;;;;;;;21.40;7.57;;;7.30;99.90;;;;;;5053510;28;20219;-68
2021/03/15 00:06:59;;;;;;;25.20;7.63;;;7.30;99.90;;;;;;5051087;28;20534;-69
2021/03/15 00:09:26;;;;;;;23.53;7.17;;;7.30;99.90;;;;;;5069681;28;20706;-68
2021/03/15 00:11:53;;;;;;;24.90;9.67;;;7.30;99.90;;;;;;5056688;28;20196;-67
2021/03/15 00:14:20;;;;;;;22.20;8.20;;;7.30;99.90;;;;;;5053732;28;20603;-67
2021/03/15 00:16:48;;;;;;;24.87;8.37;;;7.40;99.90;;;;;;5052290;28;20207;-68
2021/03/15 00:19:14;;;;;;;24.50;8.30;;;7.40;99.90;;;;;;5051491;28;20206;-67
2021/03/15 00:21:41;;;;;;;22.20;7.97;;;7.40;99.90;;;;;;5050699;28;20681;-68
2021/03/15 00:24:09;;;;;;;20.77;8.13;;;7.40;99.90;;;;;;5066810;28;20223;-67
2021/03/15 00:26:35;;;;;;;25.50;7.43;;;7.40;99.90;;;;;;5052157;28;20200;-68
2021/03/15 00:29:03;;;;;;;22.40;8.57;;;7.40;99.90;;;;;;5052319;28;20562;-67
2021/03/15 00:31:29;;;;;;;13.87;7.93;;;7.40;99.90;;;;;;5051531;28;20242;-67
2021/03/15 00:33:56;;;;;;;28.83;8.13;;;7.40;99.90;;;;;;5053024;28;20198;-67
2021/03/15 00:36:22;;;;;;;28.00;8.77;;;7.40;99.90;;;;;;5051859;28;20206;-67
2021/03/15 00:38:49;;;;;;;25.03;8.70;;;7.40;99.90;;;;;;5052564;28;20195;-67
2021/03/15 00:41:15;;;;;;;18.83;8.17;;;7.40;99.90;;;;;;5060531;28;20679;-67
2021/03/15 00:43:41;;;;;;;21.40;7.90;;;7.40;99.90;;;;;;5072687;28;20226;-68
2021/03/15 00:46:09;;;;;;;25.27;8.27;;;7.40;99.90;;;;;;5058649;28;20216;-67
2021/03/15 00:48:36;;;;;;;23.47;7.90;;;7.40;99.90;;;;;;5052236;28;20199;-67
2021/03/15 00:51:02;;;;;;;21.90;7.83;;;7.40;99.90;;;;;;5052604;28;20545;-69
2021/03/15 00:53:29;;;;;;;25.10;8.00;;;7.40;99.90;;;;;;5051395;28;20211;-67
2021/03/15 00:55:55;;;;;;;21.93;9.00;;;7.40;99.90;;;;;;5061266;28;20206;-67
2021/03/15 00:58:22;;;;;;;20.13;8.10;;;7.50;99.90;;;;;;5060117;28;20649;-68
2021/03/15 01:00:49;;;;;;;24.20;8.63;;;7.50;99.90;;;;;;5052781;28;20196;-67
2021/03/15 01:03:16;;;;;;;20.97;8.13;;;7.50;99.90;;;;;;5050516;28;20223;-67
2021/03/15 01:05:48;;;;;;;18.43;7.67;;;7.40;99.90;;;;;;5052672;28;20246;-67
2021/03/15 01:08:16;;;;;;;22.90;8.43;;;7.40;99.90;;;;;;5058253;28;20199;-67
2021/03/15 01:10:45;;;;;;;17.23;7.70;;;7.40;99.90;;;;;;5051954;28;20707;-67
2021/03/15 01:13:12;;;;;;;15.57;8.30;;;7.40;99.90;;;;;;5051071;28;20207;-68
2021/03/15 01:15:40;;;;;;;22.20;8.30;;;7.40;99.90;;;;;;5052429;28;20191;-67
2021/03/15 01:18:07;;;;;;;23.93;8.70;;;7.50;99.90;;;;;;5051259;28;20226;-67
2021/03/15 01:20:35;;;;;;;22.77;7.80;;;7.50;99.90;;;;;;5050940;28;20200;-67
2021/03/15 01:23:01;;;;;;;16.10;7.87;;;7.50;99.90;;;;;;5050366;28;20203;-67
2021/03/15 01:25:30;;;;;;;19.63;8.17;;;7.50;99.90;;;;;;5051219;28;20203;-67
2021/03/15 01:27:57;;;;;;;19.20;8.20;;;7.50;99.90;;;;;;5049814;28;20681;-67
2021/03/15 01:30:28;;;;;;;22.17;8.47;;;7.50;99.90;;;;;;5052035;28;20660;-67
2021/03/15 01:32:54;;;;;;;22.33;8.73;;;7.50;99.90;;;;;;5050294;28;20226;-67
2021/03/15 01:35:21;;;;;;;19.37;8.43;;;7.50;99.90;;;;;;5056819;28;20207;-68
2021/03/15 01:37:48;;;;;;;18.53;8.37;;;7.50;99.90;;;;;;5051939;28;20204;-67
2021/03/15 01:40:15;;;;;;;21.50;8.70;;;7.50;99.90;;;;;;5051962;28;20203;-68
2021/03/15 01:42:42;;;;;;;23.20;8.50;;;7.50;99.90;;;;;;5050874;28;20210;-67
2021/03/15 01:45:09;;;;;;;16.27;8.60;;;7.50;99.90;;;;;;5052230;28;20227;-67
2021/03/15 01:47:37;;;;;;;15.50;8.40;;;7.40;99.90;;;;;;5051192;28;20202;-67
2021/03/15 01:50:04;;;;;;;16.27;9.50;;;7.50;99.90;;;;;;5050558;28;20214;-68
2021/03/15 01:52:31;;;;;;;18.23;10.30;;;7.40;99.90;;;;;;5048910;28;20203;-68
2021/03/15 01:54:58;;;;;;;21.90;10.30;;;7.40;99.90;;;;;;5051604;28;20207;-68
2021/03/15 01:57:25;;;;;;;19.83;9.53;;;7.30;99.90;;;;;;5049812;28;20599;-67
2021/03/15 01:59:52;;;;;;;20.43;9.10;;;7.30;99.90;;;;;;5052135;28;20544;-68
2021/03/15 02:02:19;;;;;;;23.27;11.03;;;7.30;99.90;;;;;;5048595;28;20641;-67
2021/03/15 02:04:45;;;;;;;17.57;9.70;;;7.30;99.90;;;;;;5065282;28;20268;-67
2021/03/15 02:07:12;;;;;;;24.77;11.17;;;7.30;99.90;;;;;;5056186;28;20214;-67
2021/03/15 02:09:39;;;;;;;27.23;11.20;;;7.30;99.90;;;;;;5054016;28;20230;-67
2021/03/15 02:12:25;;;;;;;19.20;10.93;;;7.20;99.90;;;;;;5049802;28;20653;-68
2021/03/15 02:15:02;;;;;;;25.17;11.37;;;7.20;99.90;;;;;;5051547;28;20184;-67
2021/03/15 02:17:33;;;;;;;22.80;11.37;;;7.20;99.90;;;;;;5050524;28;20201;-67
2021/03/15 02:20:35;;;;;;;23.53;12.50;;;7.10;99.90;;;;;;5050650;28;20649;-66
2021/03/15 02:23:06;;;;;;;18.90;10.40;;;7.10;99.90;;;;;;5028575;28;20206;-67
2021/03/15 02:26:08;;;;;;;20.70;11.20;;;7.00;99.90;;;;;;5058578;28;20200;-67
2021/03/15 02:29:30;;;;;;;24.53;11.77;;;7.00;99.90;;;;;;5054183;28;20606;-67
2021/03/15 02:32:23;;;;;;;23.37;11.17;;;6.90;99.90;;;;;;4994217;28;20194;-67
2021/03/15 02:35:09;;;;;;;28.60;13.20;;;6.90;99.90;;;;;;5074609;28;20709;-66
2021/03/15 02:37:41;;;;;;;23.27;12.43;;;6.80;99.90;;;;;;5054372;28;20207;-66
2021/03/15 02:40:11;;;;;;;20.80;11.17;;;6.70;99.90;;;;;;5055561;28;20203;-67
2021/03/15 02:42:43;;;;;;;23.00;11.53;;;6.60;99.90;;;;;;5051627;28;20658;-66
2021/03/15 02:45:10;;;;;;;20.57;11.53;;;6.40;99.90;;;;;;5054499;28;20222;-66
2021/03/15 02:47:40;;;;;;;26.30;12.47;;;6.30;99.90;;;;;;5054424;28;20199;-66
2021/03/15 02:50:10;;;;;;;25.17;12.93;;;6.20;99.90;;;;;;5055136;28;20231;-67
2021/03/15 02:52:41;;;;;;;26.20;12.33;;;6.10;99.90;;;;;;5052687;28;20200;-66
2021/03/15 02:55:09;;;;;;;21.40;12.03;;;6.10;99.90;;;;;;5055382;28;20617;-66
2021/03/15 02:57:36;;;;;;;22.77;11.40;;;6.00;99.90;;;;;;5060501;28;20196;-66
2021/03/15 03:00:07;;;;;;;23.87;11.63;;;6.00;99.90;;;;;;5055100;28;20198;-66
2021/03/15 03:02:35;;;;;;;22.00;11.23;;;5.90;99.90;;;;;;5053616;28;20196;-66
2021/03/15 03:05:06;;;;;;;25.10;12.67;;;5.90;99.90;;;;;;5052185;28;20223;-67
2021/03/15 03:07:36;;;;;;;22.63;11.50;;;5.90;99.90;;;;;;5054050;28;20197;-66
2021/03/15 03:10:05;;;;;;;24.40;12.73;;;6.00;99.90;;;;;;5054489;28;20227;-67
2021/03/15 03:12:33;;;;;;;27.13;11.93;;;6.00;99.90;;;;;;5053142;28;20257;-68
2021/03/15 03:15:02;;;;;;;20.47;12.57;;;6.10;99.90;;;;;;5053434;28;20664;-66
2021/03/15 03:17:30;;;;;;;28.13;11.10;;;6.10;99.90;;;;;;5053802;28;20202;-66
2021/03/15 03:19:57;;;;;;;23.13;12.33;;;6.10;99.90;;;;;;5052095;28;20607;-66
2021/03/15 03:22:24;;;;;;;20.57;11.30;;;6.10;99.90;;;;;;5054339;28;20196;-66
2021/03/15 03:24:53;;;;;;;20.90;11.17;;;6.10;99.90;;;;;;5051704;28;20223;-66
2021/03/15 03:27:20;;;;;;;18.27;10.03;;;6.10;99.90;;;;;;5057972;28;20200;-66
2021/03/15 03:29:49;;;;;;;22.07;11.17;;;6.00;99.90;;;;;;5051742;28;20204;-66
2021/03/15 03:32:17;;;;;;;21.53;11.03;;;6.00;99.90;;;;;;5054456;28;20290;-66
2021/03/15 03:34:44;;;;;;;22.93;9.90;;;5.90;99.90;;;;;;5052356;28;20718;-66
2021/03/15 03:37:11;;;;;;;23.80;11.03;;;5.80;99.90;;;;;;5053438;28;20200;-66
2021/03/15 03:39:37;;;;;;;19.60;9.63;;;5.70;99.90;;;;;;5053198;28;20204;-66
2021/03/15 03:42:06;;;;;;;16.33;8.90;;;5.60;99.90;;;;;;5052107;28;20652;-66
2021/03/15 03:44:32;;;;;;;21.27;9.93;;;5.50;99.90;;;;;;5054742;28;20269;-66
2021/03/15 03:46:59;;;;;;;18.37;8.77;;;5.40;99.90;;;;;;5060217;28;20206;-68
2021/03/15 03:49:25;;;;;;;18.97;9.23;;;5.30;99.90;;;;;;5053937;28;20556;-66
2021/03/15 03:51:58;;;;;;;22.10;9.50;;;5.30;99.90;;;;;;5054171;28;20191;-66
2021/03/15 03:54:28;;;;;;;24.37;9.00;;;5.20;99.90;;;;;;5055164;28;20224;-66
2021/03/15 03:56:59;;;;;;;25.73;9.43;;;5.00;99.90;;;;;;5072747;28;20195;-67
2021/03/15 03:59:30;;;;;;;24.73;9.17;;;5.00;99.90;;;;;;5034658;28;20270;-66
2021/03/15 04:01:59;;;;;;;18.30;8.27;;;4.90;99.90;;;;;;5034065;28;20188;-66
2021/03/15 04:04:29;;;;;;;19.47;9.40;;;4.80;99.90;;;;;;5043510;28;20227;-66
2021/03/15 04:06:56;;;;;;;18.17;7.80;;;4.70;99.90;;;;;;5053917;28;20195;-66
2021/03/15 04:09:28;;;;;;;15.67;7.97;;;4.70;99.90;;;;;;5053013;28;20203;-67
2021/03/15 04:11:59;;;;;;;20.13;8.23;;;4.60;99.90;;;;;;5053850;28;20188;-66
2021/03/15 04:14:30;;;;;;;18.43;8.23;;;4.60;99.90;;;;;;5045391;28;20192;-67
2021/03/15 04:16:59;;;;;;;12.23;7.17;;;4.50;99.90;;;;;;5070055;28;20195;-66
2021/03/15 04:19:29;;;;;;;20.07;7.57;;;4.50;99.90;;;;;;5053454;28;20203;-66
2021/03/15 04:21:59;;;;;;;19.00;7.47;;;4.50;99.90;;;;;;5053657;28;20187;-66
2021/03/15 04:24:27;;;;;;;18.87;7.43;;;4.50;99.90;;;;;;5051866;28;20227;-66
2021/03/15 04:26:54;;;;;;;12.37;6.70;;;4.50;99.90;;;;;;5046971;28;20200;-68
2021/03/15 04:29:21;;;;;;;19.10;6.37;;;4.50;99.90;;;;;;5065367;28;20231;-67
2021/03/15 04:31:50;;;;;;;16.50;6.70;;;4.50;99.90;;;;;;5057684;28;20311;-66
2021/03/15 04:34:18;;;;;;;23.23;7.17;;;4.40;99.90;;;;;;5053620;28;20231;-67
2021/03/15 04:36:45;;;;;;;23.67;7.40;;;4.50;99.90;;;;;;5048093;28;20657;-66
2021/03/15 04:39:12;;;;;;;17.13;5.70;;;4.50;99.90;;;;;;5052781;28;20245;-67
2021/03/15 04:41:39;;;;;;;16.20;6.00;;;4.50;99.90;;;;;;5053019;28;20200;-66
2021/03/15 04:44:07;;;;;;;16.13;6.37;;;4.60;99.90;;;;;;5051894;28;20761;-68
2021/03/15 04:46:33;;;;;;;19.30;6.53;;;4.60;99.90;;;;;;5052463;28;20211;-68
2021/03/15 04:49:06;;;;;;;16.70;6.00;;;4.50;99.90;;;;;;5052815;28;20199;-66
2021/03/15 04:51:34;;;;;;;23.20;5.53;;;4.50;99.90;;;;;;5065467;28;20199;-68
2021/03/15 04:54:02;;;;;;;18.00;5.63;;;4.50;99.90;;;;;;5053225;28;20254;-67
2021/03/15 04:56:29;;;;;;;21.03;5.80;;;4.50;99.90;;;;;;5052599;28;20200;-67
2021/03/15 04:58:58;;;;;;;20.80;6.37;;;4.60;99.90;;;;;;5051131;28;20203;-67
2021/03/15 05:01:29;;;;;;;23.10;5.83;;;4.70;99.90;;;;;;5051358;28;20199;-67
2021/03/15 05:03:57;;;;;;;19.67;6.47;;;4.90;99.90;;;;;;5052890;28;20564;-68
2021/03/15 05:06:25;;;;;;;19.90;6.00;;;5.00;99.90;;;;;;5052714;28;20314;-67
2021/03/15 05:08:55;;;;;;;19.57;6.70;;;5.20;99.90;;;;;;5052826;28;20203;-67
2021/03/15 05:11:25;;;;;;;10.73;5.07;;;5.40;99.90;;;;;;5052158;28;20672;-67
2021/03/15 05:13:52;;;;;;;14.77;5.97;;;5.50;99.90;;;;;;5059189;28;20195;-66
2021/03/15 05:16:19;;;;;;;18.27;5.90;;;5.60;99.90;;;;;;5054960;28;20199;-67
2021/03/15 05:18:50;;;;;;;15.47;6.40;;;5.70;99.90;;;;;;5053695;28;20200;-68
2021/03/15 05:21:17;;;;;;;21.20;7.20;;;5.80;99.90;;;;;;5032644;28;20192;-66
2021/03/15 05:23:45;;;;;;;21.20;7.10;;;5.90;99.90;;;;;;5032490;28;20224;-67
2021/03/15 05:26:12;;;;;;;23.23;7.03;;;6.00;99.90;;;;;;5032186;28;20254;-66
2021/03/15 05:28:40;;;;;;;26.77;7.90;;;6.00;99.90;;;;;;5050766;28;20277;-66
2021/03/15 05:31:08;;;;;;;25.43;7.50;;;6.00;99.90;;;;;;5052862;28;20215;-67
2021/03/15 05:33:37;;;;;;;25.33;8.27;;;6.00;99.90;;;;;;5052410;28;20191;-68
2021/03/15 05:36:09;;;;;;;25.73;8.37;;;6.00;99.90;;;;;;5047717;28;20228;-65
2021/03/15 05:38:35;;;;;;;14.23;7.73;;;6.00;99.90;;;;;;5043690;28;20218;-65
2021/03/15 05:41:04;;;;;;;25.07;8.07;;;6.10;99.90;;;;;;5052282;28;20195;-66
2021/03/15 05:43:50;;;;;;;19.90;7.57;;;6.10;99.90;;;;;;5050806;28;20675;-66
2021/03/15 05:46:44;;;;;;;16.67;7.43;;;6.10;99.90;;;;;;5054968;28;20571;-66
2021/03/15 05:49:44;;;;;;;15.77;6.80;;;6.20;99.90;;;;;;5054444;28;20200;-65
2021/03/15 05:52:26;;;;;;;17.13;7.13;;;6.20;99.90;;;;;;5052293;28;20203;-65
2021/03/15 05:55:23;;;;;;;17.43;7.37;;;6.10;99.90;;;;;;5051171;28;20195;-65
2021/03/15 05:58:13;;;;;;;21.50;7.97;;;6.10;99.90;;;;;;5050044;28;20278;-65
2021/03/15 06:00:55;;;;;;;22.30;7.47;;;6.10;99.90;;;;;;5051357;28;22258;-65
2021/03/15 06:03:44;;;;;;;13.20;6.63;;;6.20;99.90;;;;;;5054380;28;20204;-66
2021/03/15 06:06:16;;;;;;;21.67;6.93;;;6.20;99.90;;;;;;5043954;28;20199;-65
2021/03/15 06:08:47;;;;;;;20.77;7.10;;;6.20;99.90;;;;;;5054603;28;20199;-65
2021/03/15 06:11:16;;;;;;;17.67;7.07;;;6.20;99.90;;;;;;5055727;28;20231;-65
2021/03/15 06:13:44;;;;;;;15.77;6.77;;;6.20;99.90;;;;;;5055073;28;20215;-65
2021/03/15 06:16:12;;;;;;;14.90;6.93;;;6.20;99.90;;;;;;5067860;28;20207;-66
2021/03/15 06:18:39;;;;;;;21.70;7.90;;;6.20;99.90;;;;;;5052950;28;20511;-66
2021/03/15 06:21:10;;;;;;;13.03;7.03;;;6.30;99.90;;;;;;5056029;28;20219;-65
2021/03/15 06:23:38;;;;;;;17.80;7.43;;;6.20;99.90;;;;;;5054801;28;20228;-65
2021/03/15 06:26:05;;;;;;;16.10;6.73;;;6.30;99.90;;;;;;5055185;28;20203;-67
2021/03/15 06:28:31;;;;;;;19.83;7.00;;;6.30;99.90;;;;;;5051791;28;20664;-65
2021/03/15 06:30:59;;;;;;;18.37;7.67;;;6.30;99.90;;;;;;5051470;28;20207;-66
2021/03/15 06:33:27;;;;;;;17.03;7.00;;;6.30;99.90;;;;;;5055397;28;20200;-65
2021/03/15 06:35:57;;;;;;;12.50;6.03;;;6.30;99.90;;;;;;5054074;28;20212;-65
2021/03/15 06:38:24;;;;;;;15.43;6.77;;;6.30;99.90;;;;;;5054406;28;20203;-65
2021/03/15 06:40:51;;;;;;;13.07;6.30;;;6.40;99.90;;;;;;5055560;28;20195;-66
2021/03/15 06:43:20;;;;;;;14.37;6.23;;;6.40;99.90;;;;;;5054276;28;20226;-65
2021/03/15 06:45:49;;;;;;;13.90;6.40;;;6.40;99.90;;;;;;5053360;28;20228;-65
2021/03/15 06:48:17;;;;;;;13.73;6.30;;;6.40;99.90;;;;;;5052918;28;20192;-65
2021/03/15 06:50:43;;;;;;;18.83;6.83;;;6.50;99.90;;;;;;5052669;28;20917;-65
2021/03/15 06:53:10;;;;;;;14.97;6.53;;;6.50;99.90;;;;;;5055428;28;20196;-65
2021/03/15 06:55:46;;;;;;;15.27;5.77;;;6.50;99.90;;;;;;5054226;28;20222;-65
2021/03/15 06:58:26;;;;;;;18.40;6.03;;;6.60;99.90;;;;;;5054995;28;20257;-65
2021/03/15 07:01:16;;;;;;;12.00;5.90;;;6.70;99.90;;;;;;5052314;28;20203;-66
2021/03/15 07:03:45;;;;;;;15.57;5.90;;;6.70;99.90;;;;;;5050321;28;20255;-66
2021/03/15 07:06:13;;;;;;;11.33;5.27;;;6.90;99.90;;;;;;5054628;28;20246;-66
2021/03/15 07:08:39;;;;;;;19.30;5.43;;;7.00;99.90;;;;;;5055055;28;20249;-65
2021/03/15 07:11:17;;;;;;;15.47;5.93;;;7.10;99.90;;;;;;5052140;28;20226;-65
2021/03/15 07:13:44;;;;;;;18.40;5.33;;;7.20;99.90;;;;;;5052810;28;20199;-66
2021/03/15 07:16:25;;;;;;;15.83;5.27;;;7.30;99.90;;;;;;5052161;28;20211;-65
2021/03/15 07:18:53;;;;;;;11.57;5.20;;;7.30;99.90;;;;;;5052250;28;20199;-65
2021/03/15 07:21:32;;;;;;;14.60;4.63;;;7.20;99.90;;;;;;5054454;28;20225;-65
2021/03/15 07:23:59;;;;;;;14.33;4.23;;;7.20;99.90;;;;;;5052446;28;20565;-65
2021/03/15 07:26:26;;;;;;;14.43;4.80;;;7.20;99.90;;;;;;5052210;28;20216;-65
2021/03/15 07:28:54;;;;;;;14.00;4.20;;;7.20;99.90;;;;;;5060669;28;20199;-68
2021/03/15 07:31:25;;;;;;;13.27;4.33;;;7.20;99.90;;;;;;5059461;28;20203;-66
2021/03/15 07:34:15;;;;;;;12.77;4.37;;;7.20;99.90;;;;;;5054561;28;20606;-66
2021/03/15 07:36:51;;;;;;;10.23;4.37;;;7.50;99.90;;;;;;5054488;28;20252;-66
2021/03/15 07:39:18;;;;;;;23.40;4.23;;;7.80;99.90;;;;;;5053483;28;20192;-68
2021/03/15 07:41:46;;;;;;;14.07;3.80;;;8.10;99.90;;;;;;5054364;28;20238;-66
2021/03/15 07:44:20;;;;;;;14.47;4.37;;;8.30;99.90;;;;;;5054180;28;20219;-66
2021/03/15 07:46:48;;;;;;;10.27;3.83;;;8.10;99.90;;;;;;5051145;28;20502;-66
2021/03/15 07:49:24;;;;;;;11.67;3.67;;;8.30;99.90;;;;;;5057510;28;20195;-67
2021/03/15 07:52:02;;;;;;;12.00;4.00;;;8.60;99.90;;;;;;5056302;28;20599;-67
2021/03/15 07:54:31;;;;;;;8.37;3.13;;;8.90;99.90;;;;;;5052906;28;20619;-67
2021/03/15 07:57:19;;;;;;;11.60;3.10;;;9.00;99.90;;;;;;5053441;28;20203;-66
2021/03/15 07:59:47;;;;;;;9.40;3.27;;;9.10;99.90;;;;;;5074009;28;20195;-67
2021/03/15 08:02:19;;;;;;;9.23;3.13;;;9.20;99.90;;;;;;5050746;28;20208;-67
2021/03/15 08:04:47;;;;;;;12.17;3.27;;;9.30;99.90;;;;;;5049935;28;20699;-70
2021/03/15 08:07:14;;;;;;;15.03;3.07;;;9.50;99.90;;;;;;5051413;28;20215;-76
2021/03/15 08:09:42;;;;;;;14.37;3.97;;;9.40;99.90;;;;;;5051508;28;20235;-70
2021/03/15 08:12:10;;;;;;;12.97;3.87;;;9.20;99.90;;;;;;5048454;28;20283;-69
2021/03/15 08:14:41;;;;;;;10.50;3.10;;;9.10;99.90;;;;;;5053799;28;20199;-69
2021/03/15 08:17:09;;;;;;;9.93;3.10;;;9.00;99.90;;;;;;5053380;28;20184;-69
2021/03/15 08:19:37;;;;;;;12.33;3.13;;;8.90;99.90;;;;;;5053467;28;20195;-69
2021/03/15 08:22:07;;;;;;;15.27;3.23;;;8.60;99.90;;;;;;5049883;28;20627;-69
2021/03/15 08:24:36;;;;;;;12.53;3.20;;;8.30;99.90;;;;;;5050716;28;20223;-69
2021/03/15 08:27:04;;;;;;;14.83;4.10;;;8.30;99.90;;;;;;5053064;28;20207;-69
2021/03/15 08:29:36;;;;;;;10.13;3.80;;;8.20;99.90;;;;;;5053525;28;20223;-69
2021/03/15 08:32:05;;;;;;;11.97;3.30;;;8.20;99.90;;;;;;5053357;28;20188;-69
2021/03/15 08:34:34;;;;;;;14.67;3.33;;;8.50;99.90;;;;;;5053409;28;20199;-69
2021/03/15 08:37:00;;;;;;;7.67;2.60;;;8.60;99.90;;;;;;5053144;28;20779;-68
2021/03/15 08:39:40;;;;;;;9.63;3.10;;;8.50;99.90;;;;;;5052520;28;20203;-68
2021/03/15 08:42:31;;;;;;;10.93;2.97;;;8.80;99.90;;;;;;5050974;28;20195;-69
2021/03/15 08:44:58;;;;;;;9.93;3.17;;;9.80;99.90;;;;;;5052797;28;20596;-69
2021/03/15 08:47:50;;;;;;;13.13;2.87;;;10.40;99.90;;;;;;5050694;28;20299;-67
2021/03/15 08:50:46;;;;;;;10.70;2.93;;;10.80;99.90;;;;;;5024273;28;20192;-67
2021/03/15 08:53:50;;;;;;;10.60;2.77;;;10.90;99.90;;;;;;5050233;28;20531;-67
2021/03/15 08:56:38;;;;;;;9.40;2.57;;;10.70;99.90;;;;;;5032663;28;20623;-71
2021/03/15 08:59:08;;;;;;;11.83;3.23;;;10.50;99.90;;;;;;5034467;28;20196;-66
2021/03/15 09:01:56;;;;;;;9.33;2.50;;;10.70;99.90;;;;;;5046509;28;20212;-67
2021/03/15 09:04:50;;;;;;;11.20;2.60;;;11.00;99.90;;;;;;5046251;28;20215;-67
2021/03/15 09:07:35;;;;;;;10.33;2.63;;;10.70;99.90;;;;;;5053163;28;20203;-66
2021/03/15 09:10:38;;;;;;;8.60;2.53;;;10.30;99.90;;;;;;5050274;28;20265;-68
2021/03/15 09:13:24;;;;;;;7.23;1.97;;;10.90;99.90;;;;;;5039776;28;20217;-67
2021/03/15 09:16:03;;;;;;;5.73;2.20;;;12.20;99.90;;;;;;5052262;28;20192;-67
2021/03/15 09:18:50;;;;;;;11.37;2.40;;;13.40;99.90;;;;;;5048977;28;20249;-67
2021/03/15 09:21:55;;;;;;;8.43;2.17;;;14.00;99.90;;;;;;5049863;28;20218;-67
2021/03/15 09:24:36;;;;;;;12.53;2.57;;;14.70;99.90;;;;;;5049759;28;20268;-67
2021/03/15 09:27:03;;;;;;;7.13;2.43;;;15.00;99.90;;;;;;5040754;28;20675;-67
2021/03/15 09:29:31;;;;;;;9.07;2.40;;;14.60;99.90;;;;;;5052067;28;20192;-66
2021/03/15 09:32:01;;;;;;;8.20;2.50;;;13.90;99.90;;;;;;5051807;28;20198;-66
2021/03/15 09:34:28;;;;;;;8.53;2.50;;;13.40;99.90;;;;;;5058369;28;20687;-66
2021/03/15 09:36:56;;;;;;;9.23;2.80;;;13.30;99.90;;;;;;5060079;28;20200;-66
2021/03/15 09:39:25;;;;;;;6.40;2.23;;;13.90;99.90;;;;;;5050144;28;20565;-68
2021/03/15 09:41:52;;;;;;;9.03;2.93;;;14.30;99.90;;;;;;5047362;28;20200;-67
2021/03/15 09:44:23;;;;;;;9.37;2.37;;;15.00;99.90;;;;;;5052614;28;20241;-66
2021/03/15 09:46:52;;;;;;;7.93;2.20;;;14.60;99.90;;;;;;5062519;28;20226;-67
2021/03/15 09:49:37;;;;;;;8.00;2.20;;;14.00;99.90;;;;;;5047975;28;20191;-65
2021/03/15 09:52:17;;;;;;;5.33;1.97;;;13.70;99.90;;;;;;5042410;28;20243;-66
2021/03/15 09:54:46;;;;;;;7.93;2.30;;;13.30;99.90;;;;;;5040714;28;20191;-65
2021/03/15 09:57:14;;;;;;;5.57;2.13;;;12.90;99.90;;;;;;5051601;28;20660;-65
2021/03/15 09:59:40;;;;;;;5.20;2.30;;;12.40;99.90;;;;;;5057205;28;21027;-64
2021/03/15 10:02:08;;;;;;;8.17;2.20;;;12.00;99.90;;;;;;5057304;28;20546;-65
2021/03/15 10:04:36;;;;;;;10.67;2.13;;;11.70;99.90;;;;;;5048314;28;20318;-61
2021/03/15 10:07:06;;;;;;;10.90;2.40;;;11.50;99.90;;;;;;5043702;28;20199;-66
2021/03/15 10:09:38;;;;;;;6.97;2.07;;;11.50;99.90;;;;;;5040766;28;20188;-61
2021/03/15 10:12:05;;;;;;;6.47;2.10;;;11.30;99.90;;;;;;5042447;28;20191;-65
2021/03/15 10:14:32;;;;;;;9.97;2.20;;;11.10;99.90;;;;;;5043116;28;20207;-69
2021/03/15 10:17:01;;;;;;;7.50;2.10;;;11.00;99.90;;;;;;5043633;28;20207;-67
2021/03/15 10:19:29;;;;;;;4.90;1.50;;;10.90;99.90;;;;;;5041202;28;20207;-67
2021/03/15 10:22:09;;;;;;;7.20;2.07;;;10.80;99.90;;;;;;5037453;28;20227;-67
2021/03/15 10:24:38;;;;;;;9.93;2.57;;;10.90;99.90;;;;;;5043133;28;20211;-73
2021/03/15 10:27:06;;;;;;;7.23;2.03;;;11.10;99.90;;;;;;5035068;28;20200;-65
2021/03/15 10:29:33;;;;;;;5.23;1.90;;;11.00;99.90;;;;;;5035341;28;20212;-67
2021/03/15 10:32:01;;;;;;;10.17;2.20;;;10.90;99.90;;;;;;5037521;28;20206;-66
2021/03/15 10:34:29;;;;;;;9.33;2.60;;;10.80;99.90;;;;;;5038377;28;20192;-66
2021/03/15 10:36:57;;;;;;;7.13;1.97;;;10.90;99.90;;;;;;5041383;28;20246;-66
2021/03/15 10:39:25;;;;;;;6.80;1.60;;;11.20;99.90;;;;;;5031417;28;20260;-65
2021/03/15 10:41:52;;;;;;;7.87;1.90;;;11.60;99.90;;;;;;5035117;28;20657;-64
2021/03/15 10:44:26;;;;;;;6.63;1.97;;;12.00;99.90;;;;;;5037252;28;20270;-65
2021/03/15 10:46:56;;;;;;;9.73;1.80;;;12.10;99.90;;;;;;5047535;28;20200;-66
2021/03/15 10:49:24;;;;;;;6.67;1.60;;;11.70;99.90;;;;;;5039809;28;20200;-66
2021/03/15 10:51:53;;;;;;;8.17;2.20;;;11.20;99.90;;;;;;5040746;28;20204;-67
2021/03/15 10:54:33;;;;;;;6.13;1.60;;;10.90;99.90;;;;;;5036959;28;20204;-67
2021/03/15 10:57:14;;;;;;;6.67;2.03;;;11.10;99.90;;;;;;5045752;28;20211;-66
2021/03/15 10:59:42;;;;;;;6.13;2.03;;;11.30;99.90;;;;;;5044961;28;20192;-63
2021/03/15 11:02:09;;;;;;;7.47;1.90;;;11.30;99.90;;;;;;5049630;28;20661;-63
2021/03/15 11:04:36;;;;;;;7.07;2.30;;;11.20;99.90;;;;;;5036682;28;20591;-65
2021/03/15 11:07:24;;;;;;;11.13;1.97;;;11.20;99.90;;;;;;5036297;28;20211;-66
2021/03/15 11:09:59;;;;;;;8.63;1.63;;;11.10;99.90;;;;;;5035499;28;20258;-66
2021/03/15 11:12:40;;;;;;;7.03;1.90;;;11.10;99.90;;;;;;5035869;28;20200;-66
2021/03/15 11:15:25;;;;;;;4.97;1.97;;;11.10;99.90;;;;;;5037198;28;20257;-65
2021/03/15 11:18:01;;;;;;;5.90;1.60;;;11.40;99.90;;;;;;5034862;28;20200;-66
2021/03/15 11:20:37;;;;;;;2.97;1.60;;;12.10;99.90;;;;;;5043316;28;20237;-62
2021/03/15 11:23:05;;;;;;;5.53;1.83;;;12.40;99.90;;;;;;5044412;28;20195;-65
2021/03/15 11:25:32;;;;;;;5.33;1.73;;;12.40;99.90;;;;;;5044332;28;20227;-65
2021/03/15 11:28:05;;;;;;;7.87;1.60;;;11.90;99.90;;;;;;5042991;28;20254;-64
2021/03/15 11:30:32;;;;;;;6.00;1.70;;;11.00;99.90;;;;;;5044640;28;20231;-64
2021/03/15 11:33:03;;;;;;;6.50;2.27;;;10.30;99.90;;;;;;5050707;28;20686;-65
2021/03/15 11:35:30;;;;;;;12.33;2.70;;;10.20;99.90;;;;;;5042006;28;20207;-67
2021/03/15 11:37:58;;;;;;;8.90;2.60;;;10.90;99.90;;;;;;5037558;28;20207;-70
2021/03/15 11:40:39;;;;;;;7.00;1.97;;;11.70;99.90;;;;;;5034423;28;20192;-66
2021/03/15 11:43:08;;;;;;;9.03;1.97;;;12.10;99.90;;;;;;5050252;28;20203;-65
2021/03/15 11:45:35;;;;;;;9.20;1.73;;;12.30;99.90;;;;;;5034371;28;20224;-67
2021/03/15 11:48:03;;;;;;;5.90;1.77;;;12.30;99.90;;;;;;5049909;28;20192;-65
2021/03/15 11:50:31;;;;;;;5.53;1.50;;;12.30;99.90;;;;;;5041919;28;20196;-61
2021/03/15 11:52:58;;;;;;;7.03;1.70;;;12.30;99.90;;;;;;5040454;28;20211;-61
2021/03/15 11:55:25;;;;;;;9.53;1.77;;;12.10;99.90;;;;;;5041710;28;20207;-63
2021/03/15 11:57:52;;;;;;;8.53;1.80;;;11.90;99.90;;;;;;5043679;28;20204;-67
2021/03/15 12:00:21;;;;;;;5.53;1.50;;;12.00;99.90;;;;;;5036011;28;20204;-66
2021/03/15 12:02:48;;;;;;;7.40;1.53;;;12.40;99.90;;;;;;5045067;28;20195;-66
2021/03/15 12:05:17;;;;;;;9.60;1.53;;;12.70;99.90;;;;;;5047841;28;20228;-65
2021/03/15 12:07:43;;;;;;;6.10;1.70;;;13.00;99.90;;;;;;5041581;28;20603;-65
2021/03/15 12:10:12;;;;;;;4.70;1.57;;;12.90;99.90;;;;;;5052353;28;20250;-64
2021/03/15 12:12:39;;;;;;;6.83;2.33;;;12.80;99.90;;;;;;5040060;28;20208;-65
2021/03/15 12:15:08;;;;;;;7.23;2.13;;;13.30;99.90;;;;;;5033639;28;20200;-65
2021/03/15 12:17:35;;;;;;;8.80;2.10;;;13.90;99.90;;;;;;5040358;28;20196;-66
2021/03/15 12:20:02;;;;;;;5.97;1.50;;;13.70;99.90;;;;;;5037186;28;20192;-65
2021/03/15 12:22:29;;;;;;;5.23;1.30;;;13.40;99.90;;;;;;5033312;28;20204;-64
2021/03/15 12:24:55;;;;;;;5.37;1.80;;;13.00;99.90;;;;;;5033330;28;20227;-64
2021/03/15 12:27:22;;;;;;;7.23;1.70;;;12.60;99.90;;;;;;5043424;28;20203;-65
2021/03/15 12:29:48;;;;;;;5.57;1.97;;;12.30;99.90;;;;;;5034304;28;20196;-65
2021/03/15 12:32:16;;;;;;;5.70;1.73;;;12.30;99.90;;;;;;5044207;28;20196;-65
2021/03/15 12:34:42;;;;;;;6.93;2.10;;;12.80;99.90;;;;;;5034839;28;20204;-65
2021/03/15 12:37:08;;;;;;;4.83;1.50;;;13.40;99.90;;;;;;5037843;28;20235;-66
2021/03/15 12:39:35;;;;;;;6.37;1.90;;;14.10;99.90;;;;;;5038172;28;20195;-65
2021/03/15 12:42:04;;;;;;;8.17;2.17;;;14.70;99.90;;;;;;5044812;28;20200;-66
2021/03/15 12:44:30;;;;;;;4.00;1.23;;;14.00;99.90;;;;;;5038764;28;20992;-66
2021/03/15 12:46:57;;;;;;;4.43;1.20;;;11.70;99.90;;;;;;5045776;28;20228;-66
2021/03/15 12:49:24;;;;;;;4.03;1.70;;;10.60;99.90;;;;;;5032984;28;20203;-66
2021/03/15 12:51:51;;;;;;;6.10;1.70;;;9.70;99.90;;;;;;5032764;28;20200;-65
2021/03/15 12:54:17;;;;;;;4.20;1.67;;;9.00;99.90;;;;;;5041591;28;20645;-66
2021/03/15 12:56:44;;;;;;;5.63;1.67;;;8.50;99.90;;;;;;5047158;28;20721;-66
2021/03/15 12:59:12;;;;;;;6.37;1.53;;;8.30;99.90;;;;;;5032931;28;20646;-65
2021/03/15 13:01:38;;;;;;;3.80;1.40;;;8.10;99.90;;;;;;5031968;28;20283;-66
2021/03/15 13:04:05;;;;;;;11.07;2.13;;;8.00;99.90;;;;;;5030440;28;20687;-69
2021/03/15 13:06:32;;;;;;;7.70;2.03;;;7.90;99.90;;;;;;5045307;28;20200;-67